createdAt,value
2023-02-22T00:01:56.674Z,6.67
2023-02-22T00:04:24.417Z,6.63
2023-02-22T00:06:52.286Z,6.59
2023-02-22T00:09:21.742Z,6.55
2023-02-22T00:11:49.480Z,6.50
2023-02-22T00:14:18.971Z,6.48
2023-02-22T00:16:46.738Z,6.45
2023-02-22T00:19:14.578Z,6.44
2023-02-22T00:21:44.352Z,6.44
2023-02-22T00:24:24.230Z,6.41
2023-02-22T00:26:57.231Z,6.41
2023-02-22T00:29:25.692Z,6.39
2023-02-22T00:31:53.781Z,6.36
2023-02-22T00:34:23.622Z,6.36
2023-02-22T00:36:51.321Z,6.35
2023-02-22T00:39:18.644Z,6.33
2023-02-22T00:41:46.505Z,6.32
2023-02-22T00:44:14.246Z,6.32
2023-02-22T00:46:42.151Z,6.32
2023-02-22T00:51:36.268Z,6.33
2023-02-22T00:54:04.913Z,6.36
2023-02-22T00:56:34.088Z,6.38
2023-02-22T00:59:01.758Z,6.39
2023-02-22T01:01:31.655Z,6.40
2023-02-22T01:03:59.539Z,6.42
2023-02-22T01:06:30.252Z,6.43
2023-02-22T01:11:26.573Z,6.47
2023-02-22T01:16:22.362Z,6.48
2023-02-22T01:18:51.356Z,6.50
2023-02-22T01:21:18.651Z,6.49
2023-02-22T01:23:47.011Z,6.47
2023-02-22T01:26:17.139Z,6.45
2023-02-22T01:28:44.952Z,6.42
2023-02-22T01:31:12.800Z,6.41
2023-02-22T01:33:40.993Z,6.41
2023-02-22T01:36:10.883Z,6.40
2023-02-22T01:38:39.330Z,6.38
2023-02-22T01:41:07.386Z,6.39
2023-02-22T01:43:36.850Z,6.39
2023-02-22T01:46:09.704Z,6.39
2023-02-22T01:51:23.343Z,6.37
2023-02-22T01:54:14.843Z,6.37
2023-02-22T01:59:11.647Z,6.36
2023-02-22T02:04:11.174Z,6.37
2023-02-22T02:09:30.622Z,6.32
2023-02-22T02:14:27.367Z,6.29
2023-02-22T02:16:56.102Z,6.28
2023-02-22T02:19:58.862Z,6.26
2023-02-22T02:22:54.857Z,6.24
2023-02-22T02:25:49.285Z,6.24
2023-02-22T02:28:54.876Z,6.23
2023-02-22T02:36:43.898Z,6.22
2023-02-22T02:39:30.460Z,6.23
2023-02-22T02:42:03.702Z,6.23
2023-02-22T02:44:42.539Z,6.23
2023-02-22T02:47:26.192Z,6.24
2023-02-22T02:52:46.163Z,6.25
2023-02-22T02:57:41.949Z,6.25
2023-02-22T03:02:59.627Z,6.26
2023-02-22T03:05:35.586Z,6.26
2023-02-22T03:08:27.003Z,6.26
2023-02-22T03:11:13.746Z,6.27
2023-02-22T03:16:35.871Z,6.26
2023-02-22T03:19:34.976Z,6.24
2023-02-22T03:30:11.796Z,6.20
2023-02-22T03:32:44.145Z,6.19
2023-02-22T03:37:55.484Z,6.14
2023-02-22T03:40:34.997Z,6.14
2023-02-22T03:45:30.926Z,6.12
2023-02-22T03:50:29.688Z,6.09
2023-02-22T03:55:25.676Z,6.06
2023-02-22T04:00:24.382Z,6.04
2023-02-22T04:02:52.444Z,6.01
2023-02-22T04:05:20.775Z,5.99
2023-02-22T04:10:17.115Z,5.94
2023-02-22T04:15:16.165Z,5.89
2023-02-22T04:17:44.463Z,5.86
2023-02-22T04:20:14.394Z,5.82
2023-02-22T04:22:43.931Z,5.76
2023-02-22T04:25:11.752Z,5.71
2023-02-22T04:27:39.983Z,5.66
2023-02-22T04:30:09.290Z,5.62
2023-02-22T04:32:38.589Z,5.56
2023-02-22T04:35:07.675Z,5.50
2023-02-22T04:37:36.714Z,5.42
2023-02-22T04:40:07.587Z,5.35
2023-02-22T04:42:36.752Z,5.29
2023-02-22T04:47:35.851Z,5.13
2023-02-22T04:52:30.727Z,5.00
2023-02-22T04:54:58.583Z,4.93
2023-02-22T04:57:26.724Z,4.87
2023-02-22T04:59:54.450Z,4.82
2023-02-22T05:02:23.919Z,4.73
2023-02-22T05:04:51.814Z,4.65
2023-02-22T05:07:19.627Z,4.57
2023-02-22T05:09:47.503Z,4.48
2023-02-22T05:12:15.740Z,4.34
2023-02-22T05:14:44.162Z,4.25
2023-02-22T05:17:12.314Z,4.18
2023-02-22T05:19:41.637Z,4.08
2023-02-22T05:22:09.372Z,4.01
2023-02-22T05:24:38.033Z,3.94
2023-02-22T05:27:05.779Z,3.88
2023-02-22T05:29:33.384Z,3.80
2023-02-22T05:34:28.302Z,3.71
2023-02-22T05:36:56.345Z,3.75
2023-02-22T05:39:24.008Z,3.99
2023-02-22T05:41:51.965Z,4.48
2023-02-22T05:46:46.095Z,5.42
2023-02-22T05:51:40.530Z,6.44
2023-02-22T05:54:08.224Z,6.97
2023-02-22T05:56:36.222Z,7.38
2023-02-22T05:59:04.155Z,7.80
2023-02-22T06:01:31.620Z,8.28
2023-02-22T06:03:59.527Z,8.82
2023-02-22T06:06:27.642Z,9.25
2023-02-22T06:08:55.880Z,9.70
2023-02-22T06:13:53.494Z,10.43
2023-02-22T06:18:48.576Z,10.97
2023-02-22T06:23:45.282Z,11.30
2023-02-22T06:26:18.899Z,11.20
2023-02-22T06:28:47.193Z,11.32
2023-02-22T06:31:15.262Z,11.56
2023-02-22T06:33:43.467Z,11.69
2023-02-22T06:36:11.431Z,11.74
2023-02-22T06:38:39.422Z,11.66
2023-02-22T06:43:35.849Z,11.46
2023-02-22T06:46:04.084Z,11.43
2023-02-22T06:48:30.711Z,11.45
2023-02-22T06:50:58.632Z,11.50
2023-02-22T06:53:26.687Z,11.58
2023-02-22T06:55:54.869Z,11.66
2023-02-22T06:58:22.753Z,11.53
2023-02-22T07:00:50.808Z,11.39
2023-02-22T07:03:19.011Z,11.11
2023-02-22T07:05:48.346Z,10.68
2023-02-22T07:08:16.041Z,10.41
2023-02-22T07:10:44.330Z,10.15
2023-02-22T07:13:12.285Z,10.08
2023-02-22T07:15:39.950Z,10.25
2023-02-22T07:18:09.768Z,10.57
2023-02-22T07:23:16.888Z,11.21
2023-02-22T07:25:44.193Z,11.45
2023-02-22T07:28:12.616Z,11.70
2023-02-22T07:30:40.704Z,11.91
2023-02-22T07:35:47.785Z,12.18
2023-02-22T07:38:20.787Z,12.31
2023-02-22T07:40:48.990Z,12.44
2023-02-22T07:43:23.989Z,12.48
2023-02-22T07:45:56.656Z,12.34
2023-02-22T07:48:27.766Z,12.17
2023-02-22T07:50:56.180Z,11.86
2023-02-22T07:55:54.897Z,11.27
2023-02-22T07:58:26.492Z,11.26
2023-02-22T08:00:54.640Z,11.21
2023-02-22T08:05:56.019Z,11.21
2023-02-22T08:10:50.855Z,10.82
2023-02-22T08:15:46.518Z,10.40
2023-02-22T08:18:18.019Z,10.50
2023-02-22T08:20:48.110Z,10.77
2023-02-22T08:23:17.522Z,10.91
2023-02-22T08:25:45.780Z,11.10
2023-02-22T08:28:17.717Z,11.11
2023-02-22T08:30:45.890Z,10.88
2023-02-22T08:33:18.175Z,10.61
2023-02-22T08:38:28.363Z,10.32
2023-02-22T08:40:56.127Z,10.29
2023-02-22T08:43:24.463Z,10.30
2023-02-22T08:45:52.685Z,10.22
2023-02-22T08:48:21.068Z,10.46
2023-02-22T08:50:49.424Z,10.88
2023-02-22T08:53:17.987Z,11.36
2023-02-22T08:55:46.162Z,11.82
2023-02-22T08:58:13.971Z,12.40
2023-02-22T09:00:43.993Z,12.79
2023-02-22T09:05:43.291Z,13.17
2023-02-22T09:10:38.473Z,13.31
2023-02-22T09:13:06.700Z,13.46
2023-02-22T09:15:35.668Z,13.53
2023-02-22T09:20:32.394Z,13.43
2023-02-22T09:23:01.868Z,13.25
2023-02-22T09:25:29.695Z,13.10
2023-02-22T09:27:57.701Z,12.95
2023-02-22T09:30:32.649Z,12.77
2023-02-22T09:33:14.019Z,12.63
2023-02-22T09:35:45.780Z,12.46
2023-02-22T09:38:16.845Z,12.34
2023-02-22T09:40:53.815Z,12.28
2023-02-22T09:43:27.351Z,12.27
2023-02-22T09:46:27.678Z,12.28
2023-02-22T09:49:05.880Z,12.22
2023-02-22T09:51:41.618Z,12.11
2023-02-22T09:54:22.814Z,12.18
2023-02-22T09:59:21.864Z,12.23
2023-02-22T10:01:57.883Z,12.22
2023-02-22T10:04:36.647Z,12.21
2023-02-22T10:07:29.937Z,12.23
2023-02-22T10:10:02.522Z,12.25
2023-02-22T10:12:44.872Z,12.22
2023-02-22T10:15:48.291Z,12.26
2023-02-22T10:18:44.865Z,12.26
2023-02-22T10:21:23.722Z,12.14
2023-02-22T10:24:45.754Z,12.05
2023-02-22T10:30:24.536Z,12.14
2023-02-22T10:35:27.551Z,12.16
2023-02-22T10:37:59.946Z,12.17
2023-02-22T10:43:11.045Z,12.18
2023-02-22T10:45:40.398Z,12.17
2023-02-22T10:48:17.851Z,12.25
2023-02-22T10:50:48.030Z,12.30
2023-02-22T10:53:15.914Z,12.34
2023-02-22T10:56:12.480Z,12.37
2023-02-22T11:04:22.491Z,12.31
2023-02-22T11:07:20.238Z,12.28
2023-02-22T11:09:58.917Z,12.26
2023-02-22T11:15:21.658Z,12.17
2023-02-22T11:17:54.642Z,12.14
2023-02-22T11:20:34.333Z,12.09
2023-02-22T11:23:04.773Z,11.95
2023-02-22T11:30:50.643Z,11.57
2023-02-22T11:35:54.163Z,11.37
2023-02-22T11:38:25.911Z,11.34
2023-02-22T11:41:17.481Z,11.32
2023-02-22T11:43:49.544Z,11.28
2023-02-22T11:49:10.072Z,11.16
2023-02-22T11:52:07.608Z,11.05
2023-02-22T11:57:46.044Z,11.08
2023-02-22T12:00:25.501Z,10.94
2023-02-22T12:03:20.375Z,10.91
2023-02-22T12:06:24.243Z,10.88
2023-02-22T12:09:09.138Z,10.83
2023-02-22T12:12:09.332Z,10.89
2023-02-22T12:15:15.454Z,10.90
2023-02-22T12:18:02.667Z,11.02
2023-02-22T12:23:09.217Z,11.19
2023-02-22T12:25:48.065Z,11.29
2023-02-22T12:28:27.219Z,11.37
2023-02-22T12:31:15.805Z,11.43
2023-02-22T12:36:14.500Z,11.64
2023-02-22T12:41:13.511Z,11.65
2023-02-22T12:43:52.967Z,11.60
2023-02-22T12:49:04.471Z,11.60
2023-02-22T12:51:40.761Z,11.58
2023-02-22T12:54:22.008Z,11.66
2023-02-22T12:56:57.092Z,11.65
2023-02-22T12:59:50.627Z,11.57
2023-02-22T13:02:42.354Z,11.51
2023-02-22T13:05:18.447Z,11.46
2023-02-22T13:08:28.714Z,11.32
2023-02-22T13:11:19.401Z,11.17
2023-02-22T13:14:07.357Z,11.05
2023-02-22T13:16:40.445Z,10.94
2023-02-22T13:19:21.554Z,10.86
2023-02-22T13:22:12.285Z,10.81
2023-02-22T13:25:00.480Z,10.88
2023-02-22T13:29:58.458Z,11.04
2023-02-22T13:35:21.015Z,11.14
2023-02-22T13:43:29.966Z,11.36
2023-02-22T13:48:47.834Z,11.49
2023-02-22T13:51:52.096Z,11.49
2023-02-22T13:54:31.310Z,11.36
2023-02-22T13:56:59.023Z,11.15
2023-02-22T13:59:36.148Z,11.02
2023-02-22T14:02:07.394Z,10.98
2023-02-22T14:04:40.300Z,10.95
2023-02-22T14:07:30.751Z,10.95
2023-02-22T14:10:00.555Z,10.94
2023-02-22T14:12:49.227Z,10.92
2023-02-22T14:17:46.289Z,10.89
2023-02-22T14:20:27.206Z,10.78
2023-02-22T14:22:55.232Z,10.70
2023-02-22T14:28:31.297Z,10.57
2023-02-22T14:31:33.310Z,10.43
2023-02-22T14:37:03.758Z,10.26
2023-02-22T14:39:45.474Z,10.24
2023-02-22T14:42:33.826Z,10.14
2023-02-22T14:45:12.970Z,10.00
2023-02-22T14:48:09.387Z,9.91
2023-02-22T14:50:45.437Z,9.84
2023-02-22T14:56:06.368Z,9.70
2023-02-22T14:59:00.292Z,9.66
2023-02-22T15:01:47.521Z,9.59
2023-02-22T15:04:25.189Z,9.51
2023-02-22T15:06:55.134Z,9.47
2023-02-22T15:09:29.685Z,9.42
2023-02-22T15:12:08.372Z,9.37
2023-02-22T15:14:39.430Z,9.30
2023-02-22T15:17:18.492Z,9.25
2023-02-22T15:22:29.253Z,9.12
2023-02-22T15:25:02.258Z,9.08
2023-02-22T15:27:30.013Z,9.02
2023-02-22T15:30:02.583Z,8.96
2023-02-22T15:32:44.828Z,8.90
2023-02-22T15:35:21.602Z,8.83
2023-02-22T15:38:05.568Z,8.76
2023-02-22T15:40:34.749Z,8.68
2023-02-22T15:45:35.058Z,8.50
2023-02-22T15:48:03.050Z,8.42
2023-02-22T15:50:33.669Z,8.33
2023-02-22T15:53:27.051Z,8.25
2023-02-22T15:55:58.717Z,8.18
2023-02-22T16:01:06.735Z,8.02
2023-02-22T16:03:41.858Z,7.93
2023-02-22T16:08:54.789Z,7.74
2023-02-22T16:11:34.696Z,7.63
2023-02-22T16:14:07.247Z,7.54
2023-02-22T16:16:40.941Z,7.44
2023-02-22T16:19:26.253Z,7.34
2023-02-22T16:24:33.089Z,7.14
2023-02-22T16:29:45.325Z,6.96
2023-02-22T16:34:41.133Z,6.81
2023-02-22T16:37:21.493Z,6.72
2023-02-22T16:39:52.273Z,6.65
2023-02-22T16:42:22.487Z,6.56
2023-02-22T16:47:17.815Z,6.40
2023-02-22T16:49:52.197Z,6.33
2023-02-22T16:52:20.515Z,6.26
2023-02-22T16:54:51.359Z,6.17
2023-02-22T16:57:22.477Z,6.13
2023-02-22T16:59:52.267Z,6.07
2023-02-22T17:02:20.576Z,6.00
2023-02-22T17:04:51.597Z,5.91
2023-02-22T17:09:52.915Z,5.81
2023-02-22T17:12:20.848Z,5.74
2023-02-22T17:14:50.617Z,5.70
2023-02-22T17:17:18.199Z,5.64
2023-02-22T17:19:45.907Z,5.58
2023-02-22T17:24:46.241Z,5.49
2023-02-22T17:29:41.764Z,5.38
2023-02-22T17:34:40.244Z,5.30
2023-02-22T17:39:35.048Z,5.20
2023-02-22T17:42:03.042Z,5.15
2023-02-22T17:44:31.280Z,5.07
2023-02-22T17:47:10.378Z,4.97
2023-02-22T17:49:38.909Z,4.83
2023-02-22T17:52:06.972Z,4.71
2023-02-22T17:54:33.854Z,4.62
2023-02-22T17:57:01.817Z,4.51
2023-02-22T17:59:29.895Z,4.42
2023-02-22T18:01:57.542Z,4.34
2023-02-22T18:04:25.373Z,4.27
2023-02-22T18:06:53.116Z,4.22
2023-02-22T18:09:20.848Z,4.19
2023-02-22T18:11:48.714Z,4.16
2023-02-22T18:14:16.768Z,4.13
2023-02-22T18:16:46.574Z,4.08
2023-02-22T18:19:17.736Z,4.02
2023-02-22T18:21:46.163Z,3.93
2023-02-22T18:24:13.685Z,3.81
2023-02-22T18:26:41.507Z,3.71
2023-02-22T18:29:11.096Z,3.63
2023-02-22T18:31:39.118Z,3.58
2023-02-22T18:36:33.413Z,3.47
2023-02-22T18:39:01.197Z,3.42
2023-02-22T18:41:29.413Z,3.34
2023-02-22T18:43:59.366Z,3.26
2023-02-22T18:46:29.163Z,3.17
2023-02-22T18:48:59.058Z,3.09
2023-02-22T18:51:28.916Z,3.03
2023-02-22T18:56:34.202Z,2.95
2023-02-22T18:59:05.911Z,2.90
2023-02-22T19:01:40.347Z,2.86
2023-02-22T19:04:10.394Z,2.83
2023-02-22T19:09:08.115Z,2.69
2023-02-22T19:11:36.843Z,2.65
2023-02-22T19:14:07.892Z,2.60
2023-02-22T19:16:35.620Z,2.54
2023-02-22T19:19:03.485Z,2.49
2023-02-22T19:21:32.520Z,2.44
2023-02-22T19:24:04.549Z,2.38
2023-02-22T19:26:32.427Z,2.35
2023-02-22T19:29:07.509Z,2.32
2023-02-22T19:34:11.481Z,2.27
2023-02-22T19:39:06.818Z,2.24
2023-02-22T19:44:01.903Z,2.21
2023-02-22T19:48:56.226Z,2.20
2023-02-22T19:51:27.747Z,2.20
2023-02-22T19:54:05.884Z,2.17
2023-02-22T19:56:34.962Z,2.15
2023-02-22T20:01:37.462Z,2.05
2023-02-22T20:04:12.413Z,1.99
2023-02-22T20:06:42.731Z,1.95
2023-02-22T20:09:26.499Z,1.90
2023-02-22T20:11:54.634Z,1.89
2023-02-22T20:16:55.135Z,1.82
2023-02-22T20:21:52.010Z,1.79
2023-02-22T20:24:19.908Z,1.76
2023-02-22T20:26:49.095Z,1.74
2023-02-22T20:31:47.222Z,1.69
2023-02-22T20:36:43.494Z,1.68
2023-02-22T20:41:44.533Z,1.66
2023-02-22T20:44:18.480Z,1.69
2023-02-22T20:46:56.839Z,1.68
2023-02-22T20:49:26.696Z,1.67
2023-02-22T20:51:54.890Z,1.67
2023-02-22T20:54:22.935Z,1.69
2023-02-22T20:59:24.161Z,1.66
2023-02-22T21:01:52.801Z,1.62
2023-02-22T21:04:24.959Z,1.61
2023-02-22T21:06:53.508Z,1.56
2023-02-22T21:09:22.007Z,1.53
2023-02-22T21:11:51.195Z,1.47
2023-02-22T21:14:19.844Z,1.41
2023-02-22T21:16:51.703Z,1.38
2023-02-22T21:19:22.377Z,1.38
2023-02-22T21:24:21.342Z,1.37
2023-02-22T21:29:15.331Z,1.29
2023-02-22T21:31:43.370Z,1.26
2023-02-22T21:34:15.479Z,1.22
2023-02-22T21:39:18.601Z,1.18
2023-02-22T21:41:49.614Z,1.15
2023-02-22T21:44:19.637Z,1.11
2023-02-22T21:46:49.256Z,1.07
2023-02-22T21:49:18.365Z,1.05
2023-02-22T21:51:46.230Z,1.02
2023-02-22T21:54:16.286Z,1.02
2023-02-22T21:56:44.167Z,1.00
2023-02-22T21:59:17.813Z,1.00
2023-02-22T22:01:53.482Z,0.98
2023-02-22T22:04:28.792Z,0.98
2023-02-22T22:06:59.422Z,0.97
2023-02-22T22:09:30.857Z,0.97
2023-02-22T22:14:30.776Z,1.01
2023-02-22T22:19:28.616Z,1.00
2023-02-22T22:22:00.431Z,1.00
2023-02-22T22:24:33.437Z,0.99
2023-02-22T22:27:03.184Z,1.00
2023-02-22T22:29:33.147Z,1.00
2023-02-22T22:32:01.485Z,0.99
2023-02-22T22:34:29.674Z,0.99
2023-02-22T22:36:58.309Z,0.99
2023-02-22T22:39:26.792Z,0.96
2023-02-22T22:41:55.249Z,0.92
2023-02-22T22:44:26.161Z,0.89
2023-02-22T22:46:56.023Z,0.88
2023-02-22T22:51:50.544Z,0.87
2023-02-22T22:54:18.276Z,0.84
2023-02-22T22:56:46.208Z,0.85
2023-02-22T22:59:14.963Z,0.87
2023-02-22T23:01:44.439Z,0.86
2023-02-22T23:06:46.837Z,0.85
2023-02-22T23:11:43.991Z,0.83
2023-02-22T23:16:38.755Z,0.81
2023-02-22T23:21:32.537Z,0.75
2023-02-22T23:24:00.439Z,0.81
2023-02-22T23:26:28.472Z,0.80
2023-02-22T23:28:58.763Z,0.82
2023-02-22T23:31:28.321Z,0.82
2023-02-22T23:33:58.217Z,0.82
2023-02-22T23:36:26.943Z,0.82
2023-02-22T23:38:55.410Z,0.82
2023-02-22T23:41:24.704Z,0.81
2023-02-22T23:43:53.445Z,0.82
2023-02-22T23:46:21.220Z,0.85
2023-02-22T23:48:52.351Z,0.84
2023-02-22T23:51:27.419Z,0.85
2023-02-22T23:53:56.632Z,0.86
2023-02-22T23:56:28.037Z,0.88
2023-02-22T23:58:56.704Z,0.87
